Latest Weather Observations for Combienbar

IDV60801

Issued at 12:03 pm EDT Wednesday 13 December 2017 (issued every 30 minutes, with the page automatically refreshed every 10 minutes)

About weather observations | Map of weather stations | Latest weather observations for VIC | Other Formats
Station Details ID: 084143 Name: COMBIENBAR AWS Lat: -37.34 Lon: 149.02 Height: 640.0 m
Data from the previous 72 hours. | See also: Recent months at Combienbar
Date/Time
EDT
Temp
°C
App
Temp
°C
Dew
Point
°C
Rel
Hum
%
Delta-T
°C
Wind Press
QNH
hPa
Press
MSL
hPa
Rain since
9am
mm
Dir  Spd
km/h
Gust
km/h
Spd
kts
Gust
kts
13/12:00pm 28.9 27.4 6.9 25 12.1 WSW 4 7 2 4 1013.8 1011.7 0.2
13/11:30am 28.0 26.0 6.2 25 11.8 SW 6 9 3 5 1014.0 1011.9 0.0
13/11:00am 27.7 26.0 5.9 25 11.7 SW 4 7 2 4 1014.2 1012.1 0.0
13/10:30am 27.4 25.1 5.6 25 11.6 W 7 19 4 10 1014.4 1012.3 0.0
13/10:00am 26.8 25.2 6.2 27 11.1 W 4 13 2 7 1014.6 1012.4 0.0
13/09:30am 25.7 23.9 7.3 31 10.0 WSW 6 17 3 9 1014.7 1012.5 0.0
13/09:00am 25.6 25.0 9.0 35 9.3 WSW 2 9 1 5 1014.9 1012.8 0.2
13/08:30am 25.6 26.3 13.5 47 7.3 NNE 2 7 1 4 1014.9 1012.8 0.2
13/08:00am 24.1 23.5 12.4 48 6.9 N 7 15 4 8 1014.8 1012.6 0.2
13/07:30am 22.4 22.5 11.5 50 6.3 N 2 9 1 5 1014.8 1012.6 0.2
13/07:00am 22.8 23.3 11.5 49 6.5 CALM 0 0 0 0 1014.8 1012.6 0.2
13/06:30am 20.5 20.4 9.4 49 6.1 CALM 0 0 0 0 1014.6 1012.4 0.2
13/06:00am 19.7 19.2 9.3 51 5.7 W 2 6 1 3 1014.4 1012.3 0.2
13/05:30am 18.9 18.5 8.3 50 5.7 CALM 0 0 0 0 1014.3 1012.2 0.2
13/05:00am 18.3 17.9 8.3 52 5.3 CALM 0 0 0 0 1014.4 1012.3 0.2
13/04:30am 18.7 18.3 8.4 51 5.5 CALM 0 0 0 0 1014.6 1012.4 0.2
13/04:00am 18.9 18.6 8.8 52 5.4 CALM 0 0 0 0 1014.9 1012.8 0.2
13/03:30am 18.4 18.4 9.7 57 4.7 CALM 0 0 0 0 1015.2 1013.1 0.2
13/03:00am 17.8 17.7 10.9 64 3.8 NNE 2 4 1 2 1015.5 1013.4 0.2
13/02:30am 17.5 17.9 11.1 66 3.6 CALM 0 0 0 0 1015.7 1013.6 0.2
13/02:00am 17.4 18.1 12.3 72 2.9 CALM 0 0 0 0 1015.8 1013.7 0.2
13/01:30am 17.0 18.0 13.1 78 2.3 CALM 0 0 0 0 1016.2 1014.0 0.2
13/01:00am 16.6 17.9 14.1 85 1.5 CALM 0 0 0 0 1016.2 1014.0 0.2
13/12:30am 16.5 17.9 14.3 87 1.3 CALM 0 0 0 0 1016.5 1014.4 0.2
13/12:00am 16.3 17.8 14.7 90 0.9 CALM 0 4 0 2 1016.8 1014.7 0.2
 
Date/Time
EDT
Temp
°C
App
Temp
°C
Dew
Point
°C
Rel
Hum
%
Delta-T
°C
Wind Press
QNH
hPa
Press
MSL
hPa
Rain since
9am
mm
Dir  Spd
km/h
Gust
km/h
Spd
kts
Gust
kts
12/11:30pm 15.6 16.7 14.5 93 0.6 NE 2 4 1 2 1017.1 1015.0 0.2
12/11:00pm 15.2 16.2 14.2 94 0.6 NNE 2 4 1 2 1017.4 1015.3 0.2
12/10:30pm 15.0 16.3 14.2 95 0.5 CALM 0 0 0 0 1017.7 1015.7 0.2
12/10:00pm 15.1 16.4 14.1 94 0.6 CALM 0 0 0 0 1018.0 1015.9 0.2
12/09:30pm 15.6 17.0 14.3 92 0.8 CALM 0 0 0 0 1018.2 1016.1 0.2
12/09:00pm 16.1 17.5 14.5 90 0.9 CALM 0 0 0 0 1018.1 1016.0 0.2
12/08:30pm 16.9 18.3 14.4 85 1.5 CALM 0 0 0 0 1018.1 1016.0 0.2
12/08:00pm 18.4 20.0 14.9 80 2.1 CALM 0 4 0 2 1017.9 1015.8 0.2
12/07:30pm 20.3 21.7 15.3 73 3.0 SW 2 6 1 3 1017.6 1015.6 0.2
12/07:00pm 22.0 23.4 14.4 62 4.6 CALM 0 2 0 1 1017.4 1015.3 0.2
12/06:30pm 22.2 23.3 14.6 62 4.6 SW 2 6 1 3 1017.2 1015.1 0.2
12/06:00pm 22.6 23.5 13.9 58 5.2 SSW 2 6 1 3 1017.0 1014.9 0.2
12/05:30pm 23.8 24.6 14.8 57 5.5 SW 4 6 2 3 1017.0 1014.9 0.2
12/05:00pm 24.5 25.4 15.1 55 5.8 SW 4 7 2 4 1017.1 1015.0 0.2
12/04:30pm 24.7 25.9 15.9 58 5.5 SSW 4 7 2 4 1017.1 1015.0 0.0
12/04:00pm 25.4 27.1 17.1 60 5.3 SSW 4 6 2 3 1017.2 1015.1 0.0
12/03:30pm 24.5 25.8 16.2 60 5.2 SSW 4 7 2 4 1017.3 1015.2 0.0
12/03:00pm 24.1 25.4 16.1 61 5.0 SW 4 7 2 4 1017.7 1015.7 0.0
12/02:30pm 24.9 26.6 17.1 62 5.0 SW 4 9 2 5 1017.9 1015.8 0.0
12/02:00pm 23.9 25.3 16.4 63 4.7 SSW 4 6 2 3 1017.7 1015.7 0.0
12/01:30pm 22.4 23.8 15.5 65 4.2 SSW 2 7 1 4 1017.9 1015.8 0.0
12/01:00pm 21.5 22.9 15.3 68 3.8 SW 2 6 1 3 1018.2 1016.1 0.0
12/12:30pm 20.9 22.1 15.0 69 3.6 SSW 2 4 1 2 1018.3 1016.2 0.0
12/12:00pm 20.8 22.2 15.4 71 3.3 E 2 9 1 5 1018.7 1016.6 0.0
12/11:30am 17.1 17.7 13.0 77 2.4 SSW 2 4 1 2 1019.3 1017.3 0.0
12/11:00am 16.0 16.2 13.1 83 1.7 SW 4 6 2 3 1019.4 1017.4 0.0
12/10:30am 16.3 16.9 13.2 82 1.8 SSW 2 4 1 2 1019.1 1017.1 0.0
12/10:00am 15.8 16.6 12.5 81 1.9 CALM 0 4 0 2 1019.4 1017.4 0.0
12/09:30am 13.5 14.3 12.7 95 0.5 CALM 0 4 0 2 1020.0 1017.9 0.0
12/09:00am 13.1 14.0 12.8 98 0.2 CALM 0 0 0 0 1020.0 1017.9 0.4
12/08:30am 12.1 12.7 11.8 98 0.2 CALM 0 0 0 0 1020.0 1017.9 0.4
12/08:00am 11.6 12.0 11.3 98 0.2 CALM 0 0 0 0 1020.1 1018.0 0.4
12/07:30am 11.1 11.4 10.8 98 0.2 CALM 0 0 0 0 1019.9 1017.8 0.4
12/07:00am 10.8 11.0 10.5 98 0.2 CALM 0 0 0 0 1019.6 1017.5 0.4
12/06:30am 10.5 10.6 10.2 98 0.2 CALM 0 0 0 0 1019.3 1017.3 0.4
12/06:00am 10.0 9.9 9.5 97 0.3 CALM 0 0 0 0 1019.1 1017.1 0.4
12/05:30am 10.7 10.9 10.4 98 0.2 CALM 0 0 0 0 1018.9 1016.8 0.4
12/05:00am 10.7 10.9 10.4 98 0.2 CALM 0 0 0 0 1018.9 1016.8 0.4
12/04:30am 10.4 10.4 9.9 97 0.3 CALM 0 0 0 0 1018.9 1016.8 0.4
12/04:00am 10.6 10.7 10.1 97 0.3 CALM 0 0 0 0 1019.1 1017.1 0.4
12/03:30am 10.5 10.6 10.0 97 0.3 CALM 0 0 0 0 1019.4 1017.4 0.4
12/03:00am 10.6 10.7 10.1 97 0.3 CALM 0 4 0 2 1019.7 1017.6 0.4
12/02:30am 11.1 11.3 10.6 97 0.3 CALM 0 0 0 0 1019.9 1017.8 0.4
12/02:00am 11.0 11.2 10.5 97 0.3 CALM 0 0 0 0 1020.3 1018.2 0.4
12/01:30am 11.1 11.3 10.6 97 0.3 CALM 0 0 0 0 1020.6 1018.6 0.4
12/01:00am 11.7 12.1 11.1 96 0.3 CALM 0 0 0 0 1020.8 1018.8 0.2
12/12:30am 12.1 12.6 11.6 97 0.3 CALM 0 0 0 0 1021.2 1019.1 0.2
12/12:00am 12.1 12.6 11.5 96 0.3 CALM 0 0 0 0 1021.6 1019.5 0.2
 
Date/Time
EDT
Temp
°C
App
Temp
°C
Dew
Point
°C
Rel
Hum
%
Delta-T
°C
Wind Press
QNH
hPa
Press
MSL
hPa
Rain since
9am
mm
Dir  Spd
km/h
Gust
km/h
Spd
kts
Gust
kts
11/11:30pm 12.1 12.6 11.5 96 0.3 CALM 0 0 0 0 1021.8 1019.8 0.2
11/11:00pm 12.2 12.6 11.4 95 0.4 CALM 0 0 0 0 1021.9 1019.9 0.2
11/10:30pm 12.5 13.0 11.6 94 0.5 CALM 0 0 0 0 1022.1 1020.1 0.2
11/10:00pm 13.1 13.6 11.5 90 0.9 CALM 0 0 0 0 1022.1 1020.1 0.2
11/09:30pm 13.7 14.3 11.8 88 1.1 CALM 0 0 0 0 1021.8 1019.8 0.2
11/09:00pm 14.3 14.9 12.0 86 1.3 CALM 0 0 0 0 1021.7 1019.6 0.2
11/08:30pm 14.5 15.2 12.2 86 1.3 CALM 0 0 0 0 1021.5 1019.4 0.2
11/08:00pm 14.8 15.4 11.9 83 1.6 CALM 0 0 0 0 1021.4 1019.3 0.2
11/07:30pm 16.3 17.1 12.5 78 2.2 CALM 0 4 0 2 1021.0 1019.0 0.2
11/07:00pm 16.5 17.2 12.3 76 2.4 CALM 0 0 0 0 1020.8 1018.8 0.2
11/06:30pm 17.6 18.4 12.7 73 2.8 CALM 0 2 0 1 1020.6 1018.6 0.2
11/06:00pm 18.6 19.3 13.5 72 3.0 SSW 2 4 1 2 1020.2 1018.1 0.2
11/05:30pm 17.1 17.7 13.0 77 2.4 SSW 2 6 1 3 1020.2 1018.1 0.2
11/05:00pm 18.6 19.6 14.3 76 2.5 SSW 2 6 1 3 1020.0 1017.9 0.2
11/04:30pm 17.1 18.3 13.8 81 1.9 CALM 0 4 0 2 1020.2 1018.1 0.2
11/04:00pm 16.0 17.2 13.8 87 1.3 CALM 0 2 0 1 1020.3 1018.2 0.2
11/03:30pm 15.3 16.4 13.5 89 1.0 CALM 0 0 0 0 1020.5 1018.5 0.2
11/03:00pm 14.9 15.9 13.1 89 1.0 CALM 0 4 0 2 1020.7 1018.7 0.2
11/02:30pm 15.2 16.3 13.4 89 1.0 CALM 0 2 0 1 1020.9 1018.9 0.2
11/02:00pm 15.3 16.0 13.3 88 1.1 SSW 2 4 1 2 1021.0 1019.0 0.2
11/01:30pm 15.7 16.3 13.2 85 1.4 SSW 2 4 1 2 1021.2 1019.1 0.2
11/01:00pm 17.1 17.9 13.6 80 2.0 SSW 2 6 1 3 1021.4 1019.3 0.2
11/12:30pm 17.0 17.7 13.3 79 2.1 SSW 2 4 1 2 1021.5 1019.4 0.2
11/12:00pm 17.1 18.2 13.6 80 2.0 CALM 0 4 0 2 1021.4 1019.3 0.2
11/11:30am 16.2 17.1 12.9 81 1.9 CALM 0 4 0 2 1021.8 1019.8 0.2
11/11:00am 15.0 15.7 12.3 84 1.5 CALM 0 2 0 1 1022.2 1020.2 0.2
11/10:30am 16.3 17.4 13.4 83 1.7 CALM 0 4 0 2 1022.1 1020.1 0.2
11/10:00am 15.1 15.5 12.4 84 1.5 SSW 2 4 1 2 1022.2 1020.2 0.0
11/09:30am 14.9 15.7 12.6 86 1.3 CALM 0 4 0 2 1022.0 1020.0 0.0
11/09:00am 14.2 15.0 12.4 89 1.0 CALM 0 4 0 2 1022.3 1020.3 0.2
11/08:30am 13.4 14.1 12.3 93 0.6 CALM 0 0 0 0 1022.5 1020.5 0.2
11/08:00am 12.9 13.6 12.1 95 0.4 CALM 0 0 0 0 1022.3 1020.3 0.2
11/07:30am 12.8 13.4 12.0 95 0.4 CALM 0 0 0 0 1022.1 1020.1 0.2
11/07:00am 12.3 12.8 11.7 96 0.3 CALM 0 0 0 0 1021.7 1019.6 0.2
11/06:30am 12.2 12.7 11.6 96 0.3 CALM 0 0 0 0 1021.7 1019.6 0.2
11/06:00am 12.0 12.4 11.4 96 0.3 CALM 0 0 0 0 1021.5 1019.4 0.2
11/05:30am 12.0 12.4 11.4 96 0.3 CALM 0 0 0 0 1021.4 1019.3 0.2
11/05:00am 12.1 12.5 11.3 95 0.4 CALM 0 0 0 0 1021.4 1019.3 0.2
11/04:30am 12.1 12.5 11.3 95 0.4 CALM 0 0 0 0 1021.4 1019.3 0.2
11/04:00am 12.1 12.5 11.3 95 0.4 CALM 0 0 0 0 1021.5 1019.4 0.2
11/03:30am 12.1 12.5 11.2 94 0.5 CALM 0 0 0 0 1021.4 1019.3 0.2
11/03:00am 12.3 12.7 11.4 94 0.5 CALM 0 0 0 0 1021.4 1019.3 0.2
11/02:30am 12.4 12.9 11.5 94 0.5 CALM 0 0 0 0 1021.8 1019.8 0.2
11/02:00am 12.3 12.7 11.2 93 0.6 CALM 0 0 0 0 1022.2 1020.2 0.2
11/01:30am 12.3 12.7 11.2 93 0.6 CALM 0 0 0 0 1022.6 1020.6 0.2
11/01:00am 12.2 12.6 11.3 94 0.5 CALM 0 0 0 0 1022.6 1020.6 0.2
11/12:30am 12.2 12.6 11.3 94 0.5 CALM 0 0 0 0 1023.0 1020.9 0.2
11/12:00am 12.6 13.1 11.5 93 0.6 CALM 0 0 0 0 1023.3 1021.3 0.2
 
Date/Time
EDT
Temp
°C
App
Temp
°C
Dew
Point
°C
Rel
Hum
%
Delta-T
°C
Wind Press
QNH
hPa
Press
MSL
hPa
Rain since
9am
mm
Dir  Spd
km/h
Gust
km/h
Spd
kts
Gust
kts
10/11:30pm 12.6 13.1 11.5 93 0.6 CALM 0 0 0 0 1023.5 1021.5 0.2
10/11:00pm 12.6 13.1 11.5 93 0.6 CALM 0 0 0 0 1023.7 1021.7 0.2
10/10:30pm 12.8 13.3 11.5 92 0.7 CALM 0 0 0 0 1023.8 1021.8 0.2
10/10:00pm 13.5 14.0 11.7 89 1.0 CALM 0 2 0 1 1023.9 1021.9 0.2
10/09:30pm 14.1 14.7 12.0 87 1.2 CALM 0 2 0 1 1023.7 1021.7 0.2
10/09:00pm 14.8 15.1 12.1 84 1.5 SSW 2 4 1 2 1023.5 1021.5 0.2
10/08:30pm 16.0 16.8 12.4 79 2.0 CALM 0 6 0 3 1023.3 1021.3 0.2
10/08:00pm 16.9 17.7 12.4 75 2.6 CALM 0 0 0 0 1023.1 1021.0 0.2
10/07:30pm 18.5 19.0 12.7 69 3.3 SW 2 4 1 2 1022.7 1020.7 0.2
10/07:00pm 20.2 20.7 12.9 63 4.2 SW 2 6 1 3 1022.3 1020.3 0.0
10/06:30pm 20.4 21.8 14.3 68 3.6 CALM 0 2 0 1 1022.2 1020.2 0.0
10/06:00pm 20.2 21.6 14.3 69 3.5 CALM 0 2 0 1 1022.1 1020.1 0.0
10/05:30pm 20.1 21.5 14.5 70 3.4 CALM 0 4 0 2 1021.9 1019.9 0.0
10/05:00pm 19.9 20.7 13.8 68 3.6 SW 2 7 1 4 1021.8 1019.8 0.0
10/04:30pm 21.5 22.7 14.9 66 4.0 SSW 2 6 1 3 1021.6 1019.5 0.0
10/04:00pm 23.1 23.9 14.7 59 5.1 SSW 4 6 2 3 1021.5 1019.4 0.0
10/03:30pm 22.2 23.3 14.6 62 4.6 SW 2 6 1 3 1021.6 1019.5 0.0
10/03:00pm 21.8 22.7 13.9 61 4.7 SSW 2 6 1 3 1021.8 1019.8 0.0
10/02:30pm 22.3 23.3 14.4 61 4.8 SSW 2 6 1 3 1021.9 1019.9 0.0
10/02:00pm 24.3 25.5 16.0 60 5.2 SSW 4 6 2 3 1022.0 1020.0 0.0
10/01:30pm 23.1 23.8 14.4 58 5.3 SSW 4 7 2 4 1022.2 1020.2 0.0
10/01:00pm 23.1 24.1 14.4 58 5.3 SSW 2 6 1 3 1022.5 1020.5 0.0
10/12:30pm 21.6 22.0 13.8 61 4.7 SSW 4 4 2 2 1023.0 1020.9 0.0

Other Formats:

Comma delimited format used in spreadsheet applications
http://www.bom.gov.au/fwo/IDV60801/IDV60801.94914.axf

JavaScript Object Notation format (JSON) in row-major order
http://www.bom.gov.au/fwo/IDV60801/IDV60801.94914.json